Terminal Aerodrome Forecast
Issued by NWS Wilmington, OH

Current Version | Previous Version | Text Only | Print | Product List | Glossary Off
Versions: 1 2 3 4 5 6 7 8 9 10 11 12 13 14 15 16 17 18 19 20 21 22 23

000
FTUS41 KILN 240545
TAFCVG
TAF
KCVG 240545Z 2406/2512 26005KT P6SM FEW080 SCT250
     FM240900 26004KT 3SM BR SCT005
     FM241200 30006KT P6SM SCT005
     FM241600 32010KT P6SM SCT035
     FM250000 35008KT P6SM SCT035
     FM250400 05004KT P6SM SKC
     FM250900 06003KT 5SM BR SKC=

USA.gov is the U.S. government's official web portal to all federal, state and local government web resources and services.